Tiempo atmosférico en la estación meteorológica de Hervas, Cáceres (738 m.)



Fecha
DESCASC
Temp. máxima en grados centígrados (hora)
DESCASC
Temp. mínima en grados centígrados (hora)
DESCASC
Temp. media en grados centígrados
DESCASC
Racha de viento máxima en m/sg (hora)
DESCASC
Velocidad máxima media en intervalos de 10 minutos(hora)
DESCASC
Precipitaciones diarias en mm
DESCASC
Precipitaciones de 00:00 a 06:00 en mm
DESCASC
Precipitaciones de 06:00 a 12:00 en mm
DESCASC
Precipitaciones de 12:00 a 18:00 en mm
DESCASC
Precipitaciones de 18:00 a 24:00 en mm
DESCASC
02-08-2020 33 (16:30) 16.2 (08:20) 24.6 10.28 (23:40) 5 (14:10) 0 0 0 0 0
01-08-2020 33.9 (17:50) 18.5 (07:40) 26.2 7.5 (16:10) 3.89 (01:20) 0 0 0 0 0
31-07-2020 34.4 (18:30) 19.7 (07:40) 27.1 8.61 (14:40) 4.17 (22:00) 0 0 0 0 0
30-07-2020 33.9 (16:00) 21.6 (00:00) 27.8 9.72 (14:50) 4.17 (14:20) 0 0 0 0 0
29-07-2020 36.1 (16:40) 22 (00:00) 29 8.06 (17:20) 4.44 (17:20) 0 0 0 0 0
28-07-2020 34.4 (18:40) 21.7 (00:00) 28.1 6.39 (15:40) 3.61 (21:10) 0 0 0 0 0
27-07-2020 35.5 (17:10) 23 (00:00) 29.3 9.44 (13:30) 4.72 (13:30) 0 0 0 0 0
26-07-2020 35.9 (17:10) 18.3 (00:00) 27.1 9.17 (16:50) 4.44 (21:50) 0 0 0 0 0
25-07-2020 34.7 (19:30) 19.5 (00:00) 27.1 7.22 (16:00) 3.89 (21:30) 0 0 0 0 0
24-07-2020 34.3 (17:20) 19.4 (00:00) 26.8 5.83 (16:10) 3.06 (21:50) 0 0 0 0 0
23-07-2020 34.2 (18:20) 19.7 (00:00) 27 7.78 (23:10) 4.17 (00:10) 0 0 0 0 0
22-07-2020 31 (18:20) 15.8 (00:00) 23.4 9.17 (00:40) 4.17 (23:59) 6.2 6.2 0 0 0
21-07-2020 31.3 (13:00) 17.3 (00:00) 24.3 10.28 (14:20) 5.83 (14:20) 3.2 0 0 0 3.2
20-07-2020 34.5 (18:10) 17.8 (00:00) 26.1 8.61 (14:40) 4.17 (15:10) 0 0 0 0 0
19-07-2020 32.8 (17:50) 20.3 (00:00) 26.5 8.33 (17:00) 3.89 (16:00) 0 0 0 0 0
18-07-2020 35.7 (18:40) 17.6 (00:00) 26.7 6.67 (17:40) 3.89 (22:10) 0 0 0 0 0
17-07-2020 33.9 (17:10) 19.1 (00:00) 26.5 8.06 (14:40) 4.44 (13:50) 0 0 0 0 0
16-07-2020 34.6 (18:00) 19.5 (00:00) 27 6.94 (14:30) 3.33 (06:40) 0 0 0 0 0
15-07-2020 32.3 (17:50) 15.3 (00:00) 23.8 6.67 (14:30) 3.61 (14:40) 0 0 0 0 0
14-07-2020 31.8 (17:00) 18.6 (00:00) 25.2 8.89 (16:10) 4.44 (14:00) 0 0 0 0 0
13-07-2020 32.8 (17:30) 17.7 (00:00) 25.3 9.72 (17:50) 4.17 (15:00) 0 0 0 0 0
12-07-2020 31.1 (16:50) 18.7 (07:00) 24.9 10.28 (03:00) 5.28 (03:00) 0 0 0 0 0
11-07-2020 35.3 (17:40) 20.4 (02:10) 27.8 9.17 (22:30) 4.72 (06:00) 0 0 0 0 0
10-07-2020 33.2 (18:00) 17.8 (00:00) 25.5 6.94 (14:40) 3.61 (04:00) 0 0 0 0 0
09-07-2020 31.7 (19:10) 16.7 (07:30) 24.2 6.11 (22:40) 3.61 (02:00) 0 0 0 0 0
08-07-2020 33.7 (15:40) 20.4 (07:40) 27.1 14.44 (13:50) 7.22 (13:00) 0 0 0 0 0
07-07-2020 35.5 (18:10) 20 (06:40) 27.8 7.22 (15:00) 4.72 (21:00) 0 0 0 0 0

Gráficas

Temp. máximas Temp. mínimas Temp. medias Precipitaciones Rachas de viento máximas Velocidades máximas media en intervalos de 10 minutos

Datos horarios

Fecha y hora oficial Temperatura (ºC) Velocidad del viento (km/h) Dirección del viento Racha (km/h) Dirección de racha Precipitación (mm) Presión (hPa) Tendencia (hPa) Humedad (%)
2020-08-05 23:00:00 25.3 9 Sur 20 Sur 0 -- -- 37
2020-08-05 22:00:00 25.3 9 Sudeste 17 Sur 0 -- -- 40
2020-08-05 21:00:00 29.6 12 Sur 15 Sur 0 -- -- 36
2020-08-05 20:00:00 34.1 7 Noroeste 15 Oeste 0 -- -- 25
2020-08-05 19:00:00 35.3 4 Sudoeste 16 Oeste 0 -- -- 22
2020-08-05 18:00:00 34.6 6 Sudoeste 19 Oeste 0 -- -- 22
2020-08-05 17:00:00 34.5 8 Oeste 18 Oeste 0 -- -- 22
2020-08-05 16:00:00 34.1 9 Noroeste 21 Oeste 0 -- -- 25
2020-08-05 15:00:00 33.1 10 Noroeste 24 Norte 0 -- -- 23
2020-08-05 14:00:00 32.8 9 Noroeste 17 Oeste 0 -- -- 28
2020-08-05 13:00:00 31.7 8 Noroeste 16 Noroeste 0 -- -- 27
2020-08-05 12:00:00 30.2 4 Oeste 10 Noroeste 0 -- -- 29
2020-08-05 11:00:00 28.9 2 Nordeste 7 Oeste 0 -- -- 34
2020-08-05 10:00:00 27.1 2 Este 10 Sudeste 0 -- -- 41
2020-08-05 09:00:00 23.1 7 Sudeste 13 Sur 0 -- -- 49
2020-08-05 08:00:00 20.2 9 Sudeste 13 Sudeste 0 -- -- 50
2020-08-05 07:00:00 20.6 9 Sudeste 17 Sur 0 -- -- 47
2020-08-05 06:00:00 21.7 14 Sur 19 Sur 0 -- -- 44
2020-08-05 05:00:00 20.3 11 Sudeste 15 Sudeste 0 -- -- 50
2020-08-05 04:00:00 20.9 10 Sudeste 16 Sur 0 -- -- 48
2020-08-05 03:00:00 20.5 11 Sudeste 15 Sur 0 -- -- 49
2020-08-05 02:00:00 20.3 8 Sudeste 16 Sur 0 -- -- 50
2020-08-05 01:00:00 20.4 8 Sudeste 15 Sur 0 -- -- 50
2020-08-05 00:00:00 21.4 10 Sudeste 15 Sur 0 -- -- 48
2020-08-04 23:00:00 22.9 8 Sudeste 16 Sur 0 -- -- 45
2020-08-04 22:00:00 24.1 8 Sudeste 15 Sur 0 -- -- 46
2020-08-04 21:00:00 29.2 7 Sur 16 Norte 0 -- -- 37
2020-08-04 20:00:00 32.4 3 Noroeste 20 Noroeste 0 -- -- 29
2020-08-04 19:00:00 33.2 5 Noroeste 21 Oeste 0 -- -- 26
2020-08-04 18:00:00 32.9 5 Este 24 Norte 0 -- -- 26
2020-08-04 17:00:00 32.8 3 Norte 21 Nordeste 0 -- -- 24
2020-08-04 16:00:00 31.9 6 Noroeste 17 Oeste 0 -- -- 26
2020-08-04 15:00:00 31.2 4 Nordeste 17 Oeste 0 -- -- 27
2020-08-04 14:00:00 29.8 5 Norte 17 Noroeste 0 -- -- 32
2020-08-04 13:00:00 28.4 7 Noroeste 14 Noroeste 0 -- -- 32
2020-08-04 12:00:00 27 4 Oeste 13 Noroeste 0 -- -- 35
2020-08-04 11:00:00 25.4 4 Noroeste 11 Noroeste 0 -- -- 38
2020-08-04 10:00:00 24.1 0 Calma 6 Sudeste 0 -- -- 46
2020-08-04 09:00:00 20.6 4 Sudeste 11 Sur 0 -- -- 54
2020-08-04 08:00:00 17.4 8 Sudeste 15 Sur 0 -- -- 57
2020-08-04 07:00:00 16.9 8 Sudeste 14 Sudeste 0 -- -- 59
2020-08-04 06:00:00 16.9 9 Sudeste 14 Sur 0 -- -- 58
2020-08-04 05:00:00 17.8 7 Sudeste 12 Sur 0 -- -- 54
2020-08-04 04:00:00 17.9 9 Sur 14 Sur 0 -- -- 54
2020-08-04 03:00:00 19.3 8 Sudeste 14 Sudoeste 0 -- -- 50
2020-08-04 02:00:00 19.7 9 Sudeste 15 Sudeste 0 -- -- 49
2020-08-04 01:00:00 20 9 Sudeste 14 Sur 0 -- -- 48
2020-08-04 00:00:00 20.7 8 Sur 13 Sur 0 -- -- 46
2020-08-03 23:00:00 21.3 9 Sudeste 13 Sudeste 0 -- -- 45
2020-08-03 22:00:00 22.6 8 Sudeste 13 Sudeste 0 -- -- 46
2020-08-03 21:00:00 27.5 4 Sudeste 16 Nordeste 0 -- -- 38
2020-08-03 20:00:00 29.8 9 Nordeste 18 Noroeste 0 -- -- 29
2020-08-03 19:00:00 30.7 8 Nordeste 23 Norte 0 -- -- 28
2020-08-03 18:00:00 30.4 11 Norte 24 Noroeste 0 -- -- 28
2020-08-03 17:00:00 30.3 11 Norte 34 Norte 0 -- -- 28
2020-08-03 16:00:00 29.6 18 Norte 34 Noroeste 0 -- -- 31
2020-08-03 15:00:00 29.3 18 Norte 31 Norte 0 -- -- 34
2020-08-03 14:00:00 28.4 17 Noroeste 33 Noroeste 0 -- -- 35
2020-08-03 13:00:00 27.4 16 Noroeste 29 Noroeste 0 -- -- 37
2020-08-03 12:00:00 26.7 9 Norte 24 Nordeste 0 -- -- 40
2020-08-03 11:00:00 23.6 5 Oeste 15 Oeste 0 -- -- 52
2020-08-03 10:00:00 22.1 6 Oeste 9 Oeste 0 -- -- 51
2020-08-03 09:00:00 18.3 4 Sur 8 Sur 0 -- -- 64
2020-08-03 08:00:00 16.5 4 Este 11 Sudeste 0 -- -- 63
2020-08-03 07:00:00 17 3 Sur 14 Sur 0 -- -- 60
2020-08-03 06:00:00 18.4 5 Sur 15 Norte 0 -- -- 57
2020-08-03 05:00:00 19.2 4 Sur 15 Sur 0 -- -- 50
2020-08-03 04:00:00 20.2 5 Este 11 Sur 0 -- -- 43
2020-08-03 03:00:00 21.8 9 Norte 26 Nordeste 0 -- -- 38
2020-08-03 02:00:00 23.4 9 Nordeste 32 Nordeste 0 -- -- 32
2020-08-03 01:00:00 23.2 4 Sudeste 29 Nordeste 0 -- -- 42
2020-08-03 00:00:00 24.8 15 Norte 37 Norte 0 -- -- 33
2020-08-02 23:00:00 23.1 7 Sudeste 18 Este 0 -- -- 45
2020-08-02 22:00:00 23.3 6 Sudeste 21 Nordeste 0 -- -- 46
2020-08-02 21:00:00 29 9 Norte 23 Norte 0 -- -- 32
2020-08-02 20:00:00 30.2 7 Nordeste 19 Nordeste 0 -- -- 30
2020-08-02 19:00:00 31.6 7 Norte 21 Norte 0 -- -- 29
2020-08-02 18:00:00 31.8 10 Norte 28 Norte 0 -- -- 28
2020-08-02 17:00:00 32.2 10 Noroeste 27 Norte 0 -- -- 29
2020-08-02 16:00:00 32.1 12 Norte 24 Noroeste 0 -- -- 30
2020-08-02 15:00:00 31.4 11 Norte 30 Norte 0 -- -- 32
2020-08-02 14:00:00 30.3 15 Norte 28 Norte 0 -- -- 35
2020-08-02 13:00:00 28.6 10 Noroeste 22 Noroeste 0 -- -- 40
2020-08-02 12:00:00 26.9 8 Noroeste 19 Norte 0 -- -- 46
2020-08-02 11:00:00 25 5 Noroeste 15 Oeste 0 -- -- 49
2020-08-02 10:00:00 22.9 3 Oeste 10 Noroeste 0 -- -- 50
2020-08-02 09:00:00 19.7 6 Sudeste 10 Sur 0 -- -- 58
2020-08-02 08:00:00 16.3 6 Sudeste 11 Sudeste 0 -- -- 64
2020-08-02 07:00:00 16.7 8 Sur 13 Sur 0 -- -- 58
2020-08-02 06:00:00 17.5 10 Sur 15 Sur 0 -- -- 61
2020-08-02 05:00:00 18.5 8 Sudeste 14 Sur 0 -- -- 60
2020-08-02 04:00:00 20.2 12 Sur 16 Sur 0 -- -- 56
2020-08-02 03:00:00 20.2 9 Sudeste 15 Sur 0 -- -- 57
2020-08-02 02:00:00 20.9 5 Sur 12 Sur 0 -- -- 56
2020-08-02 01:00:00 22 6 Sudeste 16 Sudeste 0 -- -- 52
2020-08-02 00:00:00 22.9 9 Sur 16 Sur 0 -- -- 47
2020-08-01 23:00:00 23.5 10 Sudeste 17 Sur 0 -- -- 47
2020-08-01 22:00:00 25.7 11 Sur 15 Sur 0 -- -- 44
2020-08-01 21:00:00 30.9 7 Noroeste 20 Oeste 0 -- -- 35
2020-08-01 20:00:00 33.1 8 Oeste 21 Noroeste 0 -- -- 30
2020-08-01 19:00:00 33.6 8 Oeste 22 Oeste 0 -- -- 28
2020-08-01 18:00:00 33.7 12 Oeste 26 Oeste 0 -- -- 28
2020-08-01 17:00:00 33.5 10 Sudoeste 27 Oeste 0 -- -- 24
2020-08-01 16:00:00 33.7 6 Norte 18 Noroeste 0 -- -- 23
2020-08-01 15:00:00 33 9 Noroeste 19 Noroeste 0 -- -- 23
2020-08-01 14:00:00 32.4 6 Nordeste 14 Noroeste 0 -- -- 27
2020-08-01 13:00:00 30.6 6 Oeste 16 Noroeste 0 -- -- 27
2020-08-01 12:00:00 29.3 4 Sudoeste 12 Noroeste 0 -- -- 33
2020-08-01 11:00:00 27.4 5 Noroeste 8 Oeste 0 -- -- 39
2020-08-01 10:00:00 25.7 3 Este 9 Sur 0 -- -- 47
2020-08-01 09:00:00 21.1 8 Sur 12 Sudeste 0 -- -- 53
2020-08-01 08:00:00 18.5 5 Sudeste 14 Sur 0 -- -- 54
2020-08-01 07:00:00 19 7 Sudeste 13 Sudeste 0 -- -- 52
2020-08-01 06:00:00 21.1 9 Sur 15 Sur 0 -- -- 49
2020-08-01 05:00:00 21.2 9 Sudeste 15 Sur 0 -- -- 47
2020-08-01 04:00:00 20.9 11 Sudeste 15 Sur 0 -- -- 48
2020-08-01 03:00:00 21.3 8 Sudeste 17 Sur 0 -- -- 49
2020-08-01 02:00:00 22.2 10 Sudeste 18 Sur 0 -- -- 47
2020-08-01 01:00:00 22.3 9 Sudeste 12 Sur 0 -- -- 46
2020-08-01 00:00:00 24 9 Sudeste 20 Sur 0 -- -- 43
2020-07-31 23:00:00 25.1 12 Sur 21 Sur 0 -- -- 41
2020-07-31 22:00:00 26.3 15 Sur 20 Sur 0 -- -- 40
2020-07-31 21:00:00 29.4 10 Sur 14 Sudeste 0 -- -- 42
2020-07-31 20:00:00 33.8 6 Oeste 22 Oeste 0 -- -- 27
2020-07-31 19:00:00 34.2 8 Noroeste 23 Oeste 0 -- -- 28
2020-07-31 18:00:00 33.8 12 Noroeste 25 Noroeste 0 -- -- 29
2020-07-31 17:00:00 33.5 10 Oeste 27 Noroeste 0 -- -- 33
2020-07-31 16:00:00 33.4 9 Noroeste 26 Oeste 0 -- -- 31
2020-07-31 15:00:00 32.3 11 Oeste 31 Noroeste 0 -- -- 33
2020-07-31 14:00:00 31.4 13 Oeste 25 Noroeste 0 -- -- 35
2020-07-31 13:00:00 30.6 11 Noroeste 25 Noroeste 0 -- -- 39
2020-07-31 12:00:00 29.5 12 Noroeste 22 Noroeste 0 -- -- 40
2020-07-31 11:00:00 28.7 5 Noroeste 14 Oeste 0 -- -- 43
2020-07-31 10:00:00 28.1 3 Norte 8 Sur 0 -- -- 43
2020-07-31 09:00:00 24.1 4 Sudeste 11 Sudeste 0 -- -- 53
2020-07-31 08:00:00 20 8 Sudeste 12 Sudeste 0 -- -- 59
2020-07-31 07:00:00 20.2 8 Sudeste 12 Sur 0 -- -- 59
2020-07-31 06:00:00 21.2 9 Sur 13 Sur 0 -- -- 56
2020-07-31 05:00:00 21.3 8 Sudeste 13 Sur 0 -- -- 56
2020-07-31 04:00:00 21.3 8 Sudeste 14 Sur 0 -- -- 56
2020-07-31 03:00:00 21.9 10 Sudeste 17 Sudeste 0 -- -- 54
2020-07-31 02:00:00 22.7 9 Sur 15 Sur 0 -- -- 52
2020-07-31 01:00:00 23.8 10 Sur 17 Sur 0 -- -- 49
2020-07-31 00:00:00 25 13 Sur 17 Sur 0 -- -- 45
2020-07-30 23:00:00 24.2 9 Sudeste 16 Sur 0 -- -- 46
2020-07-30 22:00:00 26.3 11 Sur 19 Sur 0 -- -- 42
2020-07-30 21:00:00 30.2 8 Sur 19 Sudoeste 0 -- -- 37
2020-07-30 20:00:00 32.7 8 Oeste 21 Oeste 0 -- -- 32
2020-07-30 19:00:00 32.4 8 Sudoeste 21 Sudoeste 0 -- -- 34
2020-07-30 18:00:00 32 4 Oeste 20 Oeste 0 -- -- 35
2020-07-30 17:00:00 32.3 6 Oeste 30 Oeste 0 -- -- 34
2020-07-30 16:00:00 33.9 8 Sur 31 Sur 0 -- -- 31
2020-07-30 15:00:00 32.7 13 Sudoeste 35 Sudoeste 0 -- -- 35
2020-07-30 14:00:00 32.2 11 Sudoeste 33 Sudoeste 0 -- -- 36
2020-07-30 13:00:00 32.2 8 Noroeste 33 Este 0 -- -- 35
2020-07-30 12:00:00 30.4 10 Noroeste 18 Noroeste 0 -- -- 41
2020-07-30 11:00:00 28.6 4 Noroeste 9 Norte 0 -- -- 42
2020-07-30 10:00:00 27.1 3 Norte 6 Noroeste 0 -- -- 47
2020-07-30 09:00:00 25.5 0 Calma 8 Sur 0 -- -- 53
2020-07-30 08:00:00 22.7 2 Noroeste 10 Sur 0 -- -- 56
2020-07-30 07:00:00 22.3 6 Sur 10 Sudeste 0 -- -- 56
2020-07-30 06:00:00 25.3 7 Oeste 14 Sur 0 -- -- 46
2020-07-30 05:00:00 24.7 4 Sudeste 13 Sudeste 0 -- -- 46
2020-07-30 04:00:00 24.2 5 Sudeste 17 Sudeste 0 -- -- 49
2020-07-30 03:00:00 25.2 11 Sur 18 Sur 0 -- -- 46
2020-07-30 02:00:00 26.1 11 Sur 18 Sur 0 -- -- 45
2020-07-30 01:00:00 26.5 12 Sur 17 Sur 0 -- -- 43
2020-07-30 00:00:00 25.7 11 Sudeste 18 Sur 0 -- -- 46
2020-07-29 23:00:00 26.4 11 Sur 18 Sur 0 -- -- 45
2020-07-29 22:00:00 27.2 10 Sudeste 17 Sudeste 0 -- -- 44
2020-07-29 21:00:00 30.1 9 Sudeste 15 Sur 0 -- -- 44
2020-07-29 20:00:00 35.4 3 Sudoeste 18 Sudoeste 0 -- -- 29
2020-07-29 19:00:00 35.8 7 Sur 20 Sur 0 -- -- 28
2020-07-29 18:00:00 35.7 12 Sur 29 Sur 0 -- -- 26
2020-07-29 17:00:00 35.9 12 Sur 26 Sudoeste 0 -- -- 26
2020-07-29 16:00:00 35.5 12 Sur 24 Sur 0 -- -- 25
2020-07-29 15:00:00 35 9 Sur 26 Sur 0 -- -- 25
2020-07-29 14:00:00 33.6 9 Oeste 20 Oeste 0 -- -- 33
2020-07-29 13:00:00 32.3 9 Norte 15 Noroeste 0 -- -- 36
2020-07-29 12:00:00 30.3 5 Noroeste 12 Noroeste 0 -- -- 39
2020-07-29 11:00:00 29.1 4 Noroeste 8 Noroeste 0 -- -- 44
2020-07-29 10:00:00 27.6 4 Oeste 10 Oeste 0 -- -- 47
2020-07-29 09:00:00 25.3 0 Calma 8 Este 0 -- -- 55
2020-07-29 08:00:00 22.4 4 Sudeste 8 Sur 0 -- -- 55
2020-07-29 07:00:00 22.7 4 Sur 8 Sudoeste 0 -- -- 52
2020-07-29 06:00:00 23.1 2 Sudoeste 11 Sudeste 0 -- -- 52
2020-07-29 05:00:00 23.1 3 Sur 11 Sur 0 -- -- 52
2020-07-29 04:00:00 23.8 6 Sur 15 Sur 0 -- -- 48
2020-07-29 03:00:00 23 8 Sur 17 Sur 0 -- -- 49
2020-07-29 02:00:00 24.1 9 Sudeste 18 Sur 0 -- -- 48
2020-07-29 01:00:00 23.5 9 Sudeste 17 Sur 0 -- -- 50
2020-07-29 00:00:00 25 10 Sudeste 17 Sur 0 -- -- 45
2020-07-28 23:00:00 25.7 11 Sur 18 Sur 0 -- -- 43
2020-07-28 22:00:00 25.3 9 Sudeste 17 Sur 0 -- -- 46
2020-07-28 21:00:00 29.3 12 Sur 17 Sur 0 -- -- 42
2020-07-28 20:00:00 33.5 5 Oeste 17 Oeste 0 -- -- 31
2020-07-28 19:00:00 33.9 7 Oeste 19 Noroeste 0 -- -- 31
2020-07-28 18:00:00 34.3 9 Oeste 18 Oeste 0 -- -- 30
2020-07-28 17:00:00 34.1 6 Sudoeste 19 Oeste 0 -- -- 30
2020-07-28 16:00:00 33.8 6 Oeste 23 Noroeste 0 -- -- 33
2020-07-28 15:00:00 32.9 6 Sudoeste 14 Noroeste 0 -- -- 31
2020-07-28 14:00:00 31.8 4 Sudeste 14 Oeste 0 -- -- 35
2020-07-28 13:00:00 30.5 4 Sur 13 Oeste 0 -- -- 43
2020-07-28 12:00:00 28.1 6 Oeste 12 Oeste 0 -- -- 49
2020-07-28 11:00:00 25.7 3 Oeste 6 Norte 0 -- -- 59
2020-07-28 10:00:00 24.7 3 Norte 9 Sudoeste 0 -- -- 61
2020-07-28 09:00:00 23.2 6 Sudoeste 12 Sudoeste 0 -- -- 61
2020-07-28 08:00:00 22.6 4 Sudoeste 12 Sur 0 -- -- 60
2020-07-28 07:00:00 21.9 3 Sur 7 Sudeste 0 -- -- 63
2020-07-28 06:00:00 22.2 6 Sudeste 12 Sudeste 0 -- -- 60
2020-07-28 05:00:00 22.9 7 Sur 13 Sur 0 -- -- 56
2020-07-28 04:00:00 22.2 8 Sur 18 Sur 0 -- -- 58
2020-07-28 03:00:00 22.1 9 Sudeste 13 Sur 0 -- -- 59
2020-07-28 02:00:00 22.5 8 Sudeste 14 Sudeste 0 -- -- 60
2020-07-28 01:00:00 23.6 9 Sudeste 20 Sur 0 -- -- 58
2020-07-28 00:00:00 25.5 8 Sudeste 21 Sudeste 0 -- -- 50
2020-07-27 23:00:00 24.9 6 Sudeste 20 Sur 0 -- -- 43
2020-07-27 22:00:00 26.5 9 Sur 16 Sur 0 -- -- 43
2020-07-27 21:00:00 30.2 12 Sur 16 Sur 0 -- -- 40
2020-07-27 20:00:00 33.9 6 Oeste 17 Noroeste 0 -- -- 31
2020-07-27 19:00:00 35.4 4 Noroeste 16 Oeste 0 -- -- 28
2020-07-27 18:00:00 35.3 5 Oeste 18 Sudeste 0 -- -- 27
2020-07-27 17:00:00 35.4 9 Sur 26 Sudeste 0 -- -- 26
2020-07-27 16:00:00 34.4 10 Noroeste 29 Oeste 0 -- -- 29
2020-07-27 15:00:00 33.6 10 Noroeste 23 Noroeste 0 -- -- 29
2020-07-27 14:00:00 32.3 14 Noroeste 34 Oeste 0 -- -- 31
2020-07-27 13:00:00 32 9 Noroeste 17 Noroeste 0 -- -- 33
2020-07-27 12:00:00 30.4 5 Noroeste 15 Oeste 0 -- -- 32
2020-07-27 09:00:00 -- -- -- -- -- -- -- -- --
2020-07-27 08:00:00 23.1 11 Sudeste 16 Sur 0 -- -- 48
2020-07-27 07:00:00 23.8 12 Sur 17 Sur 0 -- -- 43
2020-07-27 06:00:00 24.5 10 Sudeste 17 Sur 0 -- -- 42
2020-07-27 05:00:00 24.2 9 Sur 15 Sur 0 -- -- 42
2020-07-27 04:00:00 24 10 Sur 17 Sur 0 -- -- 44
2020-07-27 03:00:00 23.8 10 Sudeste 17 Sur 0 -- -- 43
2020-07-27 02:00:00 23.6 11 Sudeste 20 Sur 0 -- -- 45
2020-07-27 01:00:00 25.3 12 Sur 19 Sur 0 -- -- 38
2020-07-27 00:00:00 25.9 11 Sur 15 Sur 0 -- -- 37
2020-07-26 23:00:00 26.2 10 Sur 20 Sur 0 -- -- 37
2020-07-26 22:00:00 27.1 16 Sur 21 Sur 0 -- -- 37
2020-07-26 21:00:00 29.3 10 Sur 15 Sur 0 -- -- 41
2020-07-26 20:00:00 35.1 4 Oeste 23 Sudoeste 0 -- -- 25
2020-07-26 19:00:00 35.4 8 Oeste 23 Noroeste 0 -- -- 24
2020-07-26 18:00:00 35.6 9 Oeste 23 Oeste 0 -- -- 24
2020-07-26 17:00:00 35.4 7 Oeste 33 Oeste 0 -- -- 24
2020-07-26 16:00:00 35.3 11 Noroeste 27 Oeste 0 -- -- 22
2020-07-26 15:00:00 34.3 12 Oeste 27 Oeste 0 -- -- 26
2020-07-26 14:00:00 33.7 10 Noroeste 20 Noroeste 0 -- -- 28
2020-07-26 13:00:00 32.3 4 Noroeste 17 Noroeste 0 -- -- 31
2020-07-26 12:00:00 31 5 Oeste 10 Noroeste 0 -- -- 33
2020-07-26 11:00:00 29.8 3 Noroeste 6 Sudeste 0 -- -- 33
2020-07-26 10:00:00 27.2 3 Este 10 Sur 0 -- -- 49
2020-07-26 09:00:00 23.2 6 Sudeste 14 Sur 0 -- -- 53
2020-07-26 08:00:00 19.8 9 Sudeste 14 Sur 0 -- -- 54
2020-07-26 07:00:00 18.9 9 Sudeste 13 Sudeste 0 -- -- 53
2020-07-26 06:00:00 18.7 8 Sudeste 15 Sur 0 -- -- 55
2020-07-26 05:00:00 18.7 8 Sudeste 15 Sur 0 -- -- 55
2020-07-26 04:00:00 21 10 Sur 15 Sur 0 -- -- 46
2020-07-26 03:00:00 21.4 11 Sur 16 Sur 0 -- -- 45
2020-07-26 02:00:00 21.5 9 Sur 13 Sur 0 -- -- 43
2020-07-26 01:00:00 23.6 7 Sudeste 20 Este 0 -- -- 37
2020-07-26 00:00:00 23.4 8 Sudeste 19 Sudeste 0 -- -- 45
2020-07-25 23:00:00 25.7 8 Sudeste 15 Sur 0 -- -- 39
2020-07-25 22:00:00 25.3 9 Sudeste 19 Sur 0 -- -- 41
2020-07-25 21:00:00 28.3 12 Sur 16 Sur 0 -- -- 42
2020-07-25 20:00:00 33.1 7 Sur 12 Sur 0 -- -- 31
2020-07-25 19:00:00 34.4 6 Oeste 20 Oeste 0 -- -- 23
2020-07-25 18:00:00 34.5 8 Oeste 21 Noroeste 0 -- -- 24
2020-07-25 17:00:00 34.2 14 Noroeste 26 Oeste 0 -- -- 24
2020-07-25 16:00:00 33.9 13 Noroeste 26 Noroeste 0 -- -- 26
2020-07-25 15:00:00 33.3 12 Noroeste 23 Oeste 0 -- -- 27
2020-07-25 14:00:00 32.2 8 Noroeste 19 Noroeste 0 -- -- 29
2020-07-25 13:00:00 31.5 4 Oeste 13 Norte 0 -- -- 30
2020-07-25 12:00:00 30 5 Oeste 11 Noroeste 0 -- -- 33
2020-07-25 11:00:00 28.4 4 Oeste 10 Oeste 0 -- -- 34
2020-07-25 10:00:00 26.4 3 Este 9 Sur 0 -- -- 46
2020-07-25 09:00:00 22.7 6 Sudeste 13 Sur 0 -- -- 55
2020-07-25 08:00:00 19.9 9 Sur 14 Sur 0 -- -- 54
2020-07-25 07:00:00 21 9 Sur 16 Sur 0 -- -- 47
2020-07-25 06:00:00 20 8 Sur 14 Sur 0 -- -- 52
2020-07-25 05:00:00 20 9 Sudeste 14 Sudeste 0 -- -- 53
2020-07-25 04:00:00 19.7 11 Sur 18 Sur 0 -- -- 52
2020-07-25 03:00:00 20.3 8 Sudeste 15 Sur 0 -- -- 51
2020-07-25 02:00:00 22.4 10 Sur 18 Sur 0 -- -- 46
2020-07-25 01:00:00 21.9 8 Sudeste 15 Este 0 -- -- 48
2020-07-25 00:00:00 22.4 9 Sudeste 14 Sur 0 -- -- 46
2020-07-24 23:00:00 22.6 8 Sudeste 16 Sur 0 -- -- 47
2020-07-24 22:00:00 24.5 10 Sudeste 15 Sur 0 -- -- 43
2020-07-24 21:00:00 28.6 8 Sudeste 14 Sudeste 0 -- -- 40
2020-07-24 20:00:00 33.8 3 Oeste 19 Oeste 0 -- -- 30
2020-07-24 19:00:00 34.2 3 Nordeste 14 Oeste 0 -- -- 26
2020-07-24 18:00:00 34.2 5 Nordeste 17 Noroeste 0 -- -- 28
2020-07-24 17:00:00 33.8 8 Oeste 21 Oeste 0 -- -- 24
2020-07-24 16:00:00 33 5 Sudoeste 18 Noroeste 0 -- -- 26
2020-07-24 15:00:00 32 7 Oeste 18 Nordeste 0 -- -- 32
2020-07-24 14:00:00 31.1 5 Sudoeste 19 Noroeste 0 -- -- 34
2020-07-24 13:00:00 30 8 Noroeste 19 Noroeste 0 -- -- 38
2020-07-24 12:00:00 28.9 6 Noroeste 16 Norte 0 -- -- 43
2020-07-24 11:00:00 26.2 6 Oeste 19 Oeste 0 -- -- 46
2020-07-24 10:00:00 24.7 6 Oeste 11 Oeste 0 -- -- 50
2020-07-24 09:00:00 22.9 5 Sur 10 Sudoeste 0 -- -- 58
2020-07-24 08:00:00 19.9 6 Sudeste 14 Sur 0 -- -- 70
2020-07-24 07:00:00 19.9 9 Sudeste 13 Sur 0 -- -- 65
2020-07-24 06:00:00 19.5 8 Sudeste 13 Sur 0 -- -- 67
2020-07-24 05:00:00 20 8 Sudeste 16 Sur 0 -- -- 65
2020-07-24 04:00:00 21.2 8 Sudeste 13 Sur 0 -- -- 61
2020-07-24 03:00:00 22.5 7 Sudeste 14 Sur 0 -- -- 57
2020-07-24 02:00:00 22.9 6 Sudeste 13 Sudeste 0 -- -- 56
2020-07-24 01:00:00 23.4 8 Sudeste 15 Sur 0 -- -- 56
2020-07-24 00:00:00 26.3 6 Este 28 Nordeste 0 -- -- 48
2020-07-23 23:00:00 26.8 7 Sudeste 17 Este 0 -- -- 47
2020-07-23 22:00:00 26.4 6 Sudeste 17 Sur 0 -- -- 52
2020-07-23 21:00:00 27.8 7 Sudeste 10 Sudeste 0 -- -- 53
2020-07-23 20:00:00 29.9 6 Sudeste 12 Sudoeste 0 -- -- 50
2020-07-23 19:00:00 33.2 5 Nordeste 16 Sudoeste 0 -- -- 37
2020-07-23 18:00:00 33.9 8 Oeste 15 Oeste 0 -- -- 33
2020-07-23 17:00:00 33.8 6 Oeste 23 Nordeste 0 -- -- 33
2020-07-23 16:00:00 33.4 10 Oeste 18 Noroeste 0 -- -- 32
2020-07-23 15:00:00 33.5 6 Oeste 16 Noroeste 0 -- -- 32
2020-07-23 14:00:00 32.7 7 Noroeste 17 Sudoeste 0 -- -- 35
2020-07-23 13:00:00 31.6 6 Oeste 15 Noroeste 0 -- -- 37
2020-07-23 12:00:00 30.6 8 Noroeste 15 Oeste 0 -- -- 39
2020-07-23 11:00:00 28.8 6 Oeste 11 Oeste 0 -- -- 45
2020-07-23 10:00:00 27.4 4 Sudeste 12 Sur 0 -- -- 52
2020-07-23 09:00:00 23.6 8 Sur 13 Sudeste 0 -- -- 66
2020-07-23 08:00:00 21.1 9 Sudeste 17 Sur 0 -- -- 67
2020-07-23 07:00:00 19.7 11 Sudeste 15 Sur 0 -- -- 72
2020-07-23 06:00:00 20.1 8 Sudeste 15 Sur 0 -- -- 67
2020-07-23 05:00:00 20.2 11 Sur 20 Sur 0 -- -- 70
2020-07-23 04:00:00 20.1 10 Sudeste 17 Sur 0 -- -- 74
2020-07-23 03:00:00 21 12 Sur 17 Sur 0 -- -- 71
2020-07-23 02:00:00 21.8 10 Sur 19 Sur 0 -- -- 66
2020-07-23 01:00:00 21.9 10 Sudeste 19 Sur 0 -- -- 69
2020-07-23 00:00:00 23.4 15 Sur 19 Sur 0 -- -- 61
2020-07-22 23:00:00 23.3 13 Sur 18 Sur 0 -- -- 63
2020-07-22 22:00:00 23.7 11 Sur 17 Sur 0 -- -- 64
2020-07-22 21:00:00 28 8 Sur 12 Sur 0 -- -- 57
2020-07-22 20:00:00 30.7 6 Oeste 18 Noroeste 0 -- -- 42
2020-07-22 19:00:00 30.9 5 Oeste 19 Oeste 0 -- -- 42
2020-07-22 18:00:00 30.9 7 Noroeste 18 Noroeste 0 -- -- 42
2020-07-22 17:00:00 30.5 5 Noroeste 17 Noroeste 0 -- -- 44
2020-07-22 16:00:00 29.4 5 Oeste 18 Noroeste 0 -- -- 47
2020-07-22 15:00:00 28.4 5 Oeste 16 Noroeste 0 -- -- 51
2020-07-22 14:00:00 27.4 4 Nordeste 12 Noroeste 0 -- -- 49
2020-07-22 13:00:00 25.8 4 Norte 15 Noroeste 0 -- -- 54
2020-07-22 12:00:00 24.1 6 Noroeste 13 Noroeste 0 -- -- 61
2020-07-22 11:00:00 22.7 7 Oeste 13 Oeste 0 -- -- 68
2020-07-22 10:00:00 21.6 2 Sudoeste 13 Oeste 0 -- -- 72
2020-07-22 09:00:00 20.3 3 Sur 12 Sudeste 0 -- -- 80
2020-07-22 08:00:00 16.7 4 Sur 13 Sudeste 0 -- -- 87
2020-07-22 07:00:00 16 10 Sudeste 16 Sur 0 -- -- 91
2020-07-22 06:00:00 16.2 9 Sudeste 18 Sudeste 0 -- -- 90
2020-07-22 05:00:00 16.5 9 Sudeste 15 Sudeste 0 -- -- 91
2020-07-22 04:00:00 16.6 7 Sudeste 14 Sur 0 -- -- 94
2020-07-22 03:00:00 16.9 8 Sur 21 Este 1.6 -- -- 93
2020-07-22 02:00:00 17.2 5 Sudeste 17 Sudoeste 0.4 -- -- 92
2020-07-22 01:00:00 17 8 Sudeste 33 Sudeste 4.2 -- -- 93
2020-07-22 00:00:00 17.3 9 Sudeste 20 Sur 1.6 -- -- 90
2020-07-21 23:00:00 18.5 7 Sur 18 Sudeste 0.4 -- -- 80
2020-07-21 22:00:00 19 10 Sur 21 Sur 0.8 -- -- 81
2020-07-21 21:00:00 20.1 8 Sur 18 Sur 0 -- -- 74
2020-07-21 20:00:00 20.5 12 Sur 23 Este 0.2 -- -- 71
2020-07-21 19:00:00 21.5 15 Este 27 Este 0.2 -- -- 64
2020-07-21 18:00:00 25.8 5 Norte 30 Sudeste 0 -- -- 50
2020-07-21 17:00:00 25.7 9 Este 23 Sudeste 0 -- -- 47
2020-07-21 16:00:00 24.4 11 Sur 16 Sur 0 -- -- 65
2020-07-21 15:00:00 26 9 Noroeste 37 Sur 0 -- -- 52
2020-07-21 14:00:00 28.3 6 Sur 13 Sur 0 -- -- 42
2020-07-21 13:00:00 31.3 3 Norte 16 Noroeste 0 -- -- 29
2020-07-21 12:00:00 30.5 6 Oeste 18 Noroeste 0 -- -- 29
2020-07-21 11:00:00 30 6 Sudoeste 13 Sudoeste 0 -- -- 34
2020-07-21 10:00:00 27.9 4 Sudoeste 10 Sur 0 -- -- 36
2020-07-21 09:00:00 26 5 Sur 14 Sur 0 -- -- 45
2020-07-21 08:00:00 23.8 3 Sudoeste 14 Este 0 -- -- 37
2020-07-21 07:00:00 24.9 8 Este 28 Sudeste 0 -- -- 31
2020-07-21 06:00:00 30.5 15 Sudeste 36 Sudeste 0 -- -- 22
2020-07-21 05:00:00 29.3 16 Sudeste 31 Sudeste 0 -- -- 22
2020-07-21 04:00:00 22.5 5 Sur 14 Sudeste 0 -- -- 33
2020-07-21 03:00:00 22.6 13 Sur 18 Sur 0 -- -- 36
2020-07-21 02:00:00 23.6 11 Sudeste 16 Sur 0 -- -- 32
2020-07-21 01:00:00 23.7 9 Sudeste 18 Sur 0 -- -- 32
2020-07-21 00:00:00 23.8 9 Sudeste 17 Sur 0 -- -- 30
2020-07-20 23:00:00 23.7 12 Sur 18 Sur 0 -- -- 31
2020-07-20 22:00:00 24.6 11 Sudeste 17 Sur 0 -- -- 33
2020-07-20 21:00:00 27.3 11 Sur 15 Sur 0 -- -- 34
2020-07-20 20:00:00 31.8 9 Sur 12 Sur 0 -- -- 31
2020-07-20 19:00:00 34.3 5 Noroeste 16 Noroeste 0 -- -- 17
2020-07-20 18:00:00 34.1 6 Oeste 20 Noroeste 0 -- -- 17
2020-07-20 17:00:00 33.9 6 Noroeste 19 Noroeste 0 -- -- 19
2020-07-20 16:00:00 33 12 Oeste 30 Oeste 0 -- -- 19
2020-07-20 15:00:00 32 13 Sudoeste 31 Oeste 0 -- -- 22
2020-07-20 14:00:00 32 7 Oeste 19 Oeste 0 -- -- 25
2020-07-20 13:00:00 30.6 9 Noroeste 17 Noroeste 0 -- -- 21
2020-07-20 12:00:00 29.7 6 Noroeste 15 Noroeste 0 -- -- 27
2020-07-20 11:00:00 28.1 3 Norte 5 Oeste 0 -- -- 29
2020-07-20 10:00:00 25.6 3 Sudeste 10 Sudeste 0 -- -- 49
2020-07-20 09:00:00 21.8 6 Sudeste 13 Sur 0 -- -- 52
2020-07-20 08:00:00 20.7 8 Sur 16 Sur 0 -- -- 37
2020-07-20 07:00:00 17.9 9 Sudeste 12 Sur 0 -- -- 41
2020-07-20 06:00:00 19 7 Sudeste 17 Sur 0 -- -- 39
2020-07-20 05:00:00 20.4 12 Sur 17 Sur 0 -- -- 37
2020-07-20 04:00:00 20.1 11 Sur 15 Sur 0 -- -- 46
2020-07-20 03:00:00 20.5 11 Sur 18 Sur 0 -- -- 44
2020-07-20 02:00:00 20.8 11 Sur 19 Sur 0 -- -- 43
2020-07-20 01:00:00 21 8 Sudeste 15 Sudeste 0 -- -- 38
2020-07-20 00:00:00 21.7 10 Sur 13 Sur 0 -- -- 38
2020-07-19 23:00:00 22.3 10 Sudeste 18 Sur 0 -- -- 35
2020-07-19 22:00:00 25.6 13 Sur 17 Sur 0 -- -- 27
2020-07-19 21:00:00 29.1 11 Sur 14 Sur 0 -- -- 27
2020-07-19 20:00:00 32.7 5 Sudoeste 21 Oeste 0 -- -- 22
2020-07-19 19:00:00 32.7 11 Noroeste 30 Oeste 0 -- -- 19
2020-07-19 18:00:00 32.8 11 Oeste 27 Oeste 0 -- -- 23
2020-07-19 17:00:00 32.4 13 Oeste 30 Noroeste 0 -- -- 27
2020-07-19 16:00:00 32.1 14 Oeste 27 Oeste 0 -- -- 27
2020-07-19 15:00:00 32.2 11 Sudoeste 28 Sudeste 0 -- -- 26
2020-07-19 14:00:00 31.1 10 Oeste 30 Sudoeste 0 -- -- 30
2020-07-19 13:00:00 30 5 Oeste 15 Noroeste 0 -- -- 34
2020-07-19 12:00:00 27.2 5 Norte 11 Noroeste 0 -- -- 42
2020-07-19 11:00:00 25 4 Noroeste 14 Oeste 0 -- -- 43
2020-07-19 10:00:00 23.9 4 Noroeste 9 Noroeste 0 -- -- 45
2020-07-19 09:00:00 23.3 3 Nordeste 17 Sudoeste 0 -- -- 52
2020-07-19 08:00:00 20.8 7 Sudeste 10 Sudeste 0 -- -- 58
2020-07-19 07:00:00 21.7 4 Sudeste 16 Sur 0 -- -- 52
2020-07-19 06:00:00 21.3 9 Sudeste 15 Sudeste 0 -- -- 51
2020-07-19 05:00:00 20.8 9 Sudeste 15 Sur 0 -- -- 49
2020-07-19 04:00:00 20.3 9 Sudeste 13 Sur 0 -- -- 49
2020-07-19 03:00:00 21.8 9 Sur 17 Sur 0 -- -- 45
2020-07-19 02:00:00 21.9 9 Sudeste 14 Sudeste 0 -- -- 45
2020-07-19 01:00:00 23.9 5 Sur 17 Sur 0 -- -- 39
2020-07-19 00:00:00 25.3 9 Sur 16 Sur 0 -- -- 36
2020-07-18 23:00:00 24.4 9 Sudeste 20 Sur 0 -- -- 40
2020-07-18 22:00:00 25.7 13 Sur 19 Sur 0 -- -- 40
2020-07-18 21:00:00 29.1 12 Sur 17 Sur 0 -- -- 40
2020-07-18 20:00:00 34.6 5 Nordeste 14 Noroeste 0 -- -- 23
2020-07-18 19:00:00 35.2 8 Nordeste 17 Nordeste 0 -- -- 22
2020-07-18 18:00:00 35.3 10 Norte 24 Norte 0 -- -- 23
2020-07-18 17:00:00 35 9 Norte 24 Noroeste 0 -- -- 22
2020-07-18 16:00:00 34.4 9 Nordeste 23 Noroeste 0 -- -- 20
2020-07-18 15:00:00 33.9 13 Noroeste 22 Noroeste 0 -- -- 21
2020-07-18 14:00:00 33.2 6 Oeste 13 Sur 0 -- -- 20
2020-07-18 13:00:00 31.8 4 Sudeste 9 Noroeste 0 -- -- 22
2020-07-18 12:00:00 29.9 4 Noroeste 10 Noroeste 0 -- -- 25
2020-07-18 11:00:00 27.9 4 Noroeste 8 Noroeste 0 -- -- 28
2020-07-18 10:00:00 26 5 Sudeste 12 Sudeste 0 -- -- 33
2020-07-18 09:00:00 21.7 7 Sudeste 16 Sudeste 0 -- -- 39
2020-07-18 08:00:00 17.6 10 Sudeste 18 Sur 0 -- -- 37
2020-07-18 07:00:00 18.8 12 Sur 17 Sur 0 -- -- 30
2020-07-18 06:00:00 19.2 12 Sur 18 Sur 0 -- -- 30
2020-07-18 05:00:00 20 13 Sur 19 Sur 0 -- -- 27
2020-07-18 04:00:00 19.4 10 Sudeste 19 Sur 0 -- -- 30
2020-07-18 03:00:00 19.8 12 Sur 18 Sur 0 -- -- 29
2020-07-18 02:00:00 19.6 10 Sur 15 Sur 0 -- -- 33
2020-07-18 01:00:00 19.3 9 Sudeste 19 Sur 0 -- -- 34
2020-07-18 00:00:00 20.7 12 Sur 21 Sur 0 -- -- 34
2020-07-17 23:00:00 22 12 Sur 19 Sur 0 -- -- 34
2020-07-17 22:00:00 23.4 8 Sur 13 Sur 0 -- -- 37
2020-07-17 21:00:00 29.7 5 Sudeste 18 Nordeste 0 -- -- 29
2020-07-17 20:00:00 32.8 8 Norte 26 Norte 0 -- -- 19
2020-07-17 19:00:00 33.4 12 Norte 28 Norte 0 -- -- 18
2020-07-17 18:00:00 33.8 11 Norte 27 Nordeste 0 -- -- 19
2020-07-17 17:00:00 33.7 10 Norte 28 Noroeste 0 -- -- 20
2020-07-17 16:00:00 33.5 14 Noroeste 27 Norte 0 -- -- 23
2020-07-17 15:00:00 33.2 13 Norte 29 Norte 0 -- -- 26
2020-07-17 14:00:00 32.8 14 Norte 28 Norte 0 -- -- 27
2020-07-17 13:00:00 32.2 7 Sudeste 12 Sudeste 0 -- -- 30
2020-07-17 12:00:00 30 5 Noroeste 10 Noroeste 0 -- -- 33
2020-07-17 11:00:00 28.1 4 Oeste 10 Noroeste 0 -- -- 37
2020-07-17 10:00:00 26.3 0 Calma 6 Sudeste 0 -- -- 44
2020-07-17 09:00:00 23 6 Sudeste 13 Sur 0 -- -- 52
2020-07-17 08:00:00 19.5 7 Sudeste 12 Sur 0 -- -- 53
2020-07-17 07:00:00 19.7 8 Sur 13 Sur 0 -- -- 50
2020-07-17 06:00:00 20.5 8 Sudeste 13 Sur 0 -- -- 48
2020-07-17 05:00:00 20.8 7 Sudeste 14 Sudeste 0 -- -- 47
2020-07-17 04:00:00 21 9 Sudeste 15 Sur 0 -- -- 47
2020-07-17 03:00:00 21.4 10 Sudeste 16 Sudeste 0 -- -- 46
2020-07-17 02:00:00 21.4 10 Sur 14 Sur 0 -- -- 45
2020-07-17 01:00:00 22.1 10 Sur 15 Sur 0 -- -- 44
2020-07-17 00:00:00 22.9 11 Sudeste 16 Sur 0 -- -- 42
2020-07-16 23:00:00 23.8 9 Sur 15 Sur 0 -- -- 40
2020-07-16 22:00:00 25.2 7 Sudeste 13 Sur 0 -- -- 42
2020-07-16 21:00:00 30.5 4 Sudeste 15 Nordeste 0 -- -- 37
2020-07-16 20:00:00 33.4 9 Nordeste 17 Norte 0 -- -- 25
2020-07-16 19:00:00 33.9 9 Nordeste 22 Nordeste 0 -- -- 25
2020-07-16 18:00:00 34.6 7 Norte 15 Noroeste 0 -- -- 25
2020-07-16 17:00:00 34.3 5 Noroeste 20 Noroeste 0 -- -- 24
2020-07-16 16:00:00 33.3 6 Noroeste 19 Oeste 0 -- -- 27
2020-07-16 15:00:00 33.1 6 Noroeste 25 Oeste 0 -- -- 28
2020-07-16 14:00:00 31.2 7 Oeste 17 Noroeste 0 -- -- 30
2020-07-16 13:00:00 30.3 3 Sudoeste 12 Noroeste 0 -- -- 32
2020-07-16 12:00:00 28.7 2 Nordeste 10 Oeste 0 -- -- 36
2020-07-16 11:00:00 26.7 6 Oeste 11 Oeste 0 -- -- 41
2020-07-16 10:00:00 26.2 0 Calma 5 Sudeste 0 -- -- 47
2020-07-16 09:00:00 23 5 Sudeste 14 Sudeste 0 -- -- 50
2020-07-16 08:00:00 19.7 9 Sur 17 Sur 0 -- -- 50
2020-07-16 07:00:00 21.1 9 Sur 17 Sur 0 -- -- 43
2020-07-16 06:00:00 20.2 4 Sur 12 Sur 0 -- -- 46
2020-07-16 05:00:00 22.2 4 Sudoeste 17 Sudeste 0 -- -- 42
2020-07-16 04:00:00 21.7 8 Sudeste 14 Sudeste 0 -- -- 43
2020-07-16 03:00:00 20.9 9 Sur 13 Sudeste 0 -- -- 49
2020-07-16 02:00:00 20.3 9 Sudeste 14 Sur 0 -- -- 46
2020-07-16 01:00:00 19.8 9 Sudeste 15 Sur 0 -- -- 44
2020-07-16 00:00:00 21.1 10 Sur 16 Sur 0 -- -- 41
2020-07-15 23:00:00 21.9 10 Sur 15 Sur 0 -- -- 39
2020-07-15 22:00:00 24.5 9 Sur 17 Sur 0 -- -- 38
2020-07-15 21:00:00 29.3 5 Sur 24 Norte 0 -- -- 34
2020-07-15 20:00:00 31.2 10 Norte 22 Norte 0 -- -- 27
2020-07-15 19:00:00 32 9 Norte 22 Norte 0 -- -- 27
2020-07-15 18:00:00 32.1 10 Norte 21 Oeste 0 -- -- 27
2020-07-15 17:00:00 32.1 5 Norte 19 Norte 0 -- -- 30
2020-07-15 16:00:00 31.3 8 Norte 22 Norte 0 -- -- 30
2020-07-15 15:00:00 30.6 12 Noroeste 24 Noroeste 0 -- -- 31
2020-07-15 14:00:00 29.8 7 Noroeste 16 Noroeste 0 -- -- 33
2020-07-15 13:00:00 27.1 8 Sudoeste 18 Norte 0 -- -- 39
2020-07-15 12:00:00 25.1 7 Oeste 17 Sudoeste 0 -- -- 41
2020-07-15 11:00:00 22.9 6 Oeste 17 Noroeste 0 -- -- 45
2020-07-15 10:00:00 21.3 7 Oeste 12 Oeste 0 -- -- 49
2020-07-15 09:00:00 19.6 2 Norte 8 Sudeste 0 -- -- 55
2020-07-15 08:00:00 15.5 5 Sudeste 8 Sur 0 -- -- 59
2020-07-15 07:00:00 15.7 3 Sur 8 Sudeste 0 -- -- 58
2020-07-15 06:00:00 16.8 5 Sudeste 10 Sudeste 0 -- -- 52
2020-07-15 05:00:00 18.3 3 Sudoeste 12 Sudeste 0 -- -- 47
2020-07-15 04:00:00 18.4 6 Sur 13 Sudeste 0 -- -- 46
2020-07-15 03:00:00 19.2 6 Sudeste 13 Sur 0 -- -- 43
2020-07-15 02:00:00 20 8 Sudeste 17 Sur 0 -- -- 39
2020-07-15 01:00:00 20.8 10 Sur 14 Sur 0 -- -- 39
2020-07-15 00:00:00 21.4 11 Sur 17 Sudeste 0 -- -- 35
2020-07-14 23:00:00 22.2 7 Sudeste 19 Sudeste 0 -- -- 36
2020-07-14 22:00:00 24 4 Sudeste 19 Nordeste 0 -- -- 36
2020-07-14 21:00:00 29.1 7 Nordeste 26 Norte 0 -- -- 26
2020-07-14 20:00:00 30.7 8 Norte 24 Norte 0 -- -- 25
2020-07-14 19:00:00 31.1 12 Norte 28 Noroeste 0 -- -- 25
2020-07-14 18:00:00 31.7 12 Norte 26 Norte 0 -- -- 25
2020-07-14 17:00:00 31.8 12 Norte 32 Norte 0 -- -- 23
2020-07-14 16:00:00 31.6 15 Noroeste 29 Norte 0 -- -- 22
2020-07-14 15:00:00 30.9 13 Norte 31 Noroeste 0 -- -- 21
2020-07-14 14:00:00 30.4 16 Norte 30 Noroeste 0 -- -- 26
2020-07-14 13:00:00 29.9 9 Norte 22 Noroeste 0 -- -- 34
2020-07-14 12:00:00 27.2 8 Sudoeste 18 Sudoeste 0 -- -- 42
2020-07-14 11:00:00 25.2 6 Oeste 12 Oeste 0 -- -- 46
2020-07-14 10:00:00 24.7 4 Noroeste 7 Oeste 0 -- -- 51
2020-07-14 09:00:00 21.3 6 Sudeste 10 Sur 0 -- -- 61
2020-07-14 08:00:00 19.6 7 Sur 11 Sur 0 -- -- 59
2020-07-14 07:00:00 18.7 9 Sur 12 Sur 0 -- -- 59
2020-07-14 06:00:00 19.6 6 Sur 14 Sur 0 -- -- 55
2020-07-14 05:00:00 19.3 8 Sudeste 14 Sur 0 -- -- 55
2020-07-14 04:00:00 20.4 9 Sur 18 Sur 0 -- -- 52
2020-07-14 03:00:00 20 9 Sur 15 Sur 0 -- -- 54
2020-07-14 02:00:00 20.6 9 Sudeste 15 Sudeste 0 -- -- 53
2020-07-14 01:00:00 21.2 8 Sudeste 14 Sur 0 -- -- 53
2020-07-14 00:00:00 23.2 5 Sudeste 19 Sudeste 0 -- -- 46
2020-07-13 23:00:00 23.5 7 Sur 15 Sudeste 0 -- -- 46
2020-07-13 22:00:00 25.1 8 Sudeste 13 Sudeste 0 -- -- 44
2020-07-13 21:00:00 30.4 5 Nordeste 22 Norte 0 -- -- 31
2020-07-13 20:00:00 31.8 8 Norte 22 Nordeste 0 -- -- 29
2020-07-13 19:00:00 32.1 13 Norte 24 Norte 0 -- -- 28
2020-07-13 18:00:00 32.5 10 Norte 35 Noroeste 0 -- -- 30
2020-07-13 17:00:00 32.6 10 Norte 29 Noroeste 0 -- -- 31
2020-07-13 16:00:00 31.8 13 Norte 29 Nordeste 0 -- -- 30
2020-07-13 15:00:00 30.9 15 Norte 33 Norte 0 -- -- 34
2020-07-13 14:00:00 31.3 10 Nordeste 24 Nordeste 0 -- -- 31
2020-07-13 13:00:00 29.3 13 Noroeste 24 Norte 0 -- -- 43
2020-07-13 12:00:00 27.9 11 Noroeste 23 Noroeste 0 -- -- 47
2020-07-13 11:00:00 26.2 6 Noroeste 14 Noroeste 0 -- -- 50
2020-07-13 10:00:00 24.3 3 Oeste 7 Noroeste 0 -- -- 52
2020-07-13 09:00:00 21.9 3 Sudeste 9 Sur 0 -- -- 63
2020-07-13 08:00:00 18.4 8 Sur 14 Sur 0 -- -- 69
2020-07-13 07:00:00 18.1 9 Sur 14 Sur 0 -- -- 67
2020-07-13 06:00:00 18.5 8 Sudeste 13 Sudeste 0 -- -- 65
2020-07-13 05:00:00 18.6 8 Sudeste 12 Sur 0 -- -- 65
2020-07-13 04:00:00 19.9 9 Sur 14 Sur 0 -- -- 61
2020-07-13 03:00:00 20.5 9 Sudeste 14 Sudeste 0 -- -- 60
2020-07-13 02:00:00 22.1 6 Sudeste 15 Sudeste 0 -- -- 53
2020-07-13 01:00:00 23.9 5 Este 18 Este 0 -- -- 47
2020-07-13 00:00:00 23.6 5 Este 15 Sudeste 0 -- -- 50
2020-07-12 23:00:00 23.2 6 Sudeste 22 Sudeste 0 -- -- 52
2020-07-12 22:00:00 24.8 11 Sudeste 22 Sudeste 0 -- -- 50
2020-07-12 21:00:00 27.9 8 Nordeste 23 Nordeste 0 -- -- 44
2020-07-12 20:00:00 28.7 9 Nordeste 30 Norte 0 -- -- 43
2020-07-12 19:00:00 30.5 12 Norte 24 Norte 0 -- -- 36
2020-07-12 18:00:00 29.1 13 Norte 25 Norte 0 -- -- 38
2020-07-12 17:00:00 30.7 12 Noroeste 24 Noroeste 0 -- -- 33
2020-07-12 16:00:00 30.8 6 Noroeste 18 Oeste 0 -- -- 32
2020-07-12 15:00:00 30.4 6 Norte 13 Noroeste 0 -- -- 34
2020-07-12 14:00:00 25.9 6 Sur 11 Sudeste 0 -- -- 51
2020-07-12 13:00:00 27.9 3 Nordeste 10 Sudeste 0 -- -- 37
2020-07-12 12:00:00 24.5 8 Sudeste 18 Sudeste 0 -- -- 60
2020-07-12 11:00:00 23.4 4 Este 13 Este 0 -- -- 66
2020-07-12 10:00:00 22.7 4 Sudoeste 9 Nordeste 0 -- -- 64
2020-07-12 09:00:00 22.4 3 Sur 9 Este 0 -- -- 61
2020-07-12 08:00:00 20.1 8 Sur 13 Sudeste 0 -- -- 62
2020-07-12 07:00:00 18.7 8 Sudeste 14 Sur 0 -- -- 67
2020-07-12 06:00:00 19.6 7 Sudoeste 14 Noroeste 0 -- -- 65
2020-07-12 05:00:00 20.8 6 Oeste 21 Sudoeste 0 -- -- 61
2020-07-12 04:00:00 20.5 3 Sudeste 30 Nordeste 0 -- -- 62
2020-07-12 03:00:00 22.5 19 Norte 37 Nordeste 0 -- -- 55
2020-07-12 02:00:00 23.2 9 Nordeste 36 Sudeste 0 -- -- 51
2020-07-12 01:00:00 23.3 10 Nordeste 29 Este 0 -- -- 50
2020-07-12 00:00:00 22.5 6 Sur 22 Este 0 -- -- 50
2020-07-11 23:00:00 25 10 Nordeste 33 Norte 0 -- -- 43
2020-07-11 22:00:00 25.8 9 Sudeste 18 Sudeste 0 -- -- 43
2020-07-11 21:00:00 27.4 10 Sur 19 Sur 0 -- -- 45
2020-07-11 20:00:00 32.6 8 Sudeste 12 Sudeste 0 -- -- 35
2020-07-11 19:00:00 34.2 5 Noroeste 14 Oeste 0 -- -- 29
2020-07-11 18:00:00 35.3 5 Sur 17 Sudeste 0 -- -- 21
2020-07-11 17:00:00 34.7 6 Oeste 25 Sudeste 0 -- -- 22
2020-07-11 16:00:00 34 9 Sudoeste 19 Sur 0 -- -- 25
2020-07-11 15:00:00 33.4 4 Norte 18 Noroeste 0 -- -- 29
2020-07-11 14:00:00 32 4 Sudoeste 9 Sudoeste 0 -- -- 33
2020-07-11 13:00:00 30.3 4 Sudeste 11 Oeste 0 -- -- 39
2020-07-11 12:00:00 28.9 4 Noroeste 12 Noroeste 0 -- -- 40
2020-07-11 11:00:00 27.6 6 Noroeste 12 Oeste 0 -- -- 46
2020-07-11 10:00:00 27.1 3 Noroeste 8 Oeste 0 -- -- 49
2020-07-11 09:00:00 24.8 3 Sur 9 Sudeste 0 -- -- 54
2020-07-11 08:00:00 21.7 8 Sur 12 Sur 0 -- -- 52
2020-07-11 07:00:00 23.2 4 Sur 20 Sur 0 -- -- 46
2020-07-11 06:00:00 26.9 17 Sur 28 Sur 0 -- -- 36
2020-07-11 05:00:00 24.4 10 Sudeste 17 Sudeste 0 -- -- 42
2020-07-11 04:00:00 23 8 Sudeste 14 Sudeste 0 -- -- 46
2020-07-11 03:00:00 20.6 8 Sudeste 17 Sur 0 -- -- 52
2020-07-11 02:00:00 20.9 11 Sudeste 19 Sudeste 0 -- -- 50
2020-07-11 01:00:00 21.5 12 Sur 17 Sur 0 -- -- 47
2020-07-11 00:00:00 21.9 10 Sudeste 17 Sur 0 -- -- 47
2020-07-10 23:00:00 22.9 9 Sudeste 17 Sur 0 -- -- 45
2020-07-10 22:00:00 24.2 8 Sudeste 13 Sudeste 0 -- -- 45
2020-07-10 21:00:00 29.2 5 Sur 14 Sudeste 0 -- -- 41
2020-07-10 20:00:00 31.8 10 Nordeste 19 Nordeste 0 -- -- 29
2020-07-10 19:00:00 32.7 8 Nordeste 20 Nordeste 0 -- -- 28
2020-07-10 18:00:00 33.2 6 Norte 21 Norte 0 -- -- 28
2020-07-10 17:00:00 32.9 8 Nordeste 23 Noroeste 0 -- -- 27
2020-07-10 16:00:00 32.4 9 Nordeste 24 Nordeste 0 -- -- 27
2020-07-10 15:00:00 31.5 7 Noroeste 25 Noroeste 0 -- -- 32
2020-07-10 14:00:00 30.5 10 Noroeste 18 Noroeste 0 -- -- 37
2020-07-10 13:00:00 28.7 5 Sudoeste 11 Oeste 0 -- -- 39
2020-07-10 12:00:00 26.9 5 Oeste 11 Noroeste 0 -- -- 41
2020-07-10 11:00:00 25.4 4 Oeste 12 Noroeste 0 -- -- 43
2020-07-10 10:00:00 24.5 3 Oeste 6 Oeste 0 -- -- 49
2020-07-10 09:00:00 21.6 4 Sudeste 9 Sudeste 0 -- -- 59
2020-07-10 08:00:00 18.4 7 Sudeste 15 Sur 0 -- -- 61
2020-07-10 07:00:00 17.9 9 Sudeste 16 Sur 0 -- -- 58
2020-07-10 06:00:00 18.2 8 Sudeste 17 Sur 0 -- -- 57
2020-07-10 05:00:00 19 9 Sur 16 Sur 0 -- -- 54
2020-07-10 04:00:00 20.1 13 Sur 17 Sur 0 -- -- 49
2020-07-10 03:00:00 20.3 7 Sur 16 Sur 0 -- -- 50
2020-07-10 02:00:00 20.9 10 Sudeste 15 Sur 0 -- -- 48
2020-07-10 01:00:00 22.2 11 Sur 18 Sur 0 -- -- 47
2020-07-10 00:00:00 23.2 8 Sudeste 12 Sur 0 -- -- 44
2020-07-09 23:00:00 24.5 5 Sudeste 22 Este 0 -- -- 41
2020-07-09 22:00:00 23.1 8 Sudeste 17 Sur 0 -- -- 43
2020-07-09 21:00:00 26.5 11 Sur 15 Sur 0 -- -- 44
2020-07-09 20:00:00 30.4 5 Sur 9 Sur 0 -- -- 44
2020-07-09 19:00:00 31.5 4 Sur 12 Sudeste 0 -- -- 30
2020-07-09 18:00:00 26.9 9 Sudeste 18 Sur 0 -- -- 45
2020-07-09 17:00:00 28.4 11 Sudeste 20 Sudeste 0 -- -- 53
2020-07-09 16:00:00 29.6 4 Oeste 15 Sudoeste 0 -- -- 35
2020-07-09 15:00:00 30.2 6 Sudoeste 15 Noroeste 0 -- -- 38
2020-07-09 14:00:00 28.2 5 Oeste 13 Sur 0 -- -- 44
2020-07-09 13:00:00 27.3 4 Noroeste 14 Oeste 0 -- -- 46
2020-07-09 12:00:00 25.4 4 Oeste 13 Noroeste 0 -- -- 48
2020-07-09 11:00:00 24.3 6 Noroeste 13 Noroeste 0 -- -- 52
2020-07-09 10:00:00 23.3 4 Oeste 9 Oeste 0 -- -- 53
2020-07-09 09:00:00 21.1 3 Sudeste 9 Sudeste 0 -- -- 61
2020-07-09 08:00:00 17.4 4 Sur 9 Este 0 -- -- 68
2020-07-09 07:00:00 18.1 6 Sur 18 Sudeste 0 -- -- 63
2020-07-09 06:00:00 18.5 5 Sudeste 19 Sur 0 -- -- 51
2020-07-09 05:00:00 17.5 6 Sur 13 Sudeste 0 -- -- 57
2020-07-09 04:00:00 17.9 6 Sur 13 Oeste 0 -- -- 52
2020-07-09 03:00:00 19.3 9 Sur 17 Sur 0 -- -- 37
2020-07-09 02:00:00 19.9 13 Sur 18 Sur 0 -- -- 38
2020-07-09 01:00:00 20.6 8 Sudeste 13 Sur 0 -- -- 36
2020-07-09 00:00:00 20.5 8 Sudeste 14 Sur 0 -- -- 37
2020-07-08 23:00:00 22 9 Sudeste 15 Sudoeste 0 -- -- 36
2020-07-08 22:00:00 25.1 11 Sur 17 Sur 0 -- -- 32
2020-07-08 21:00:00 28.9 9 Sur 23 Oeste 0 -- -- 29
2020-07-08 20:00:00 32 5 Oeste 19 Sudoeste 0 -- -- 24
2020-07-08 19:00:00 32.1 9 Oeste 28 Oeste 0 -- -- 28
2020-07-08 18:00:00 32.2 12 Oeste 28 Sudoeste 0 -- -- 28
2020-07-08 17:00:00 33.5 6 Sudoeste 28 Sur 0 -- -- 28
2020-07-08 16:00:00 33.3 13 Sudoeste 35 Sur 0 -- -- 29
2020-07-08 15:00:00 32.7 14 Sur 41 Sudeste 0 -- -- 29
2020-07-08 14:00:00 32.1 21 Sur 52 Sudeste 0 -- -- 28
2020-07-08 13:00:00 31.7 26 Sudeste 42 Sudeste 0 -- -- 28
2020-07-08 12:00:00 31.2 18 Sudeste 36 Sudeste 0 -- -- 28
2020-07-08 11:00:00 30.3 12 Sur 37 Sudeste 0 -- -- 28
2020-07-08 10:00:00 26.5 4 Norte 15 Sur 0 -- -- 45
2020-07-08 09:00:00 23 7 Sudeste 15 Sudeste 0 -- -- 51
2020-07-08 08:00:00 21 9 Sudeste 16 Sur 0 -- -- 48
2020-07-08 07:00:00 20.9 10 Sudeste 18 Sudeste 0 -- -- 47
2020-07-08 06:00:00 21.8 9 Sudeste 15 Sudeste 0 -- -- 45
2020-07-08 05:00:00 23.4 5 Este 18 Este 0 -- -- 42
2020-07-08 04:00:00 24.5 12 Sudeste 18 Sudeste 0 -- -- 38
2020-07-08 03:00:00 24.7 6 Sudeste 27 Sudeste 0 -- -- 38
2020-07-08 02:00:00 23.3 3 Sudoeste 20 Sudeste 0 -- -- 39
2020-07-08 01:00:00 25.2 11 Sur 18 Sur 0 -- -- 32
2020-07-08 00:00:00 27.2 15 Sur 21 Sur 0 -- -- 28
2020-07-07 23:00:00 25.2 14 Sur 20 Sur 0 -- -- 32
2020-07-07 22:00:00 24.7 10 Sur 19 Sur 0 -- -- 38
2020-07-07 21:00:00 27.4 17 Sur 22 Sur 0 -- -- 38
2020-07-07 20:00:00 30.7 12 Sur 15 Sur 0 -- -- 37
2020-07-07 19:00:00 34.4 8 Sur 14 Sur 0 -- -- 26
2020-07-07 18:00:00 35.4 5 Sudoeste 21 Sudoeste 0 -- -- 19
2020-07-07 17:00:00 35 11 Oeste 24 Oeste 0 -- -- 20
2020-07-07 16:00:00 34.5 8 Oeste 24 Oeste 0 -- -- 21
2020-07-07 15:00:00 34.1 11 Oeste 26 Noroeste 0 -- -- 23
2020-07-07 14:00:00 32.5 3 Sudoeste 12 Oeste 0 -- -- 38
2020-07-07 13:00:00 30.9 6 Oeste 13 Noroeste 0 -- -- 38
2020-07-07 12:00:00 29.1 5 Oeste 13 Noroeste 0 -- -- 42
2020-07-07 11:00:00 27.8 7 Oeste 15 Oeste 0 -- -- 46
2020-07-07 10:00:00 28.9 5 Oeste 20 Sudeste 0 -- -- 47
2020-07-07 09:00:00 27.3 10 Sudeste 18 Sudeste 0 -- -- 47
2020-07-07 08:00:00 21.7 4 Sur 12 Sudeste 0 -- -- 60
2020-07-07 07:00:00 20.8 10 Sudeste 16 Sudeste 0 -- -- 57
2020-07-07 06:00:00 20.9 8 Sudeste 12 Sudeste 0 -- -- 57
2020-07-07 05:00:00 22.7 5 Sudeste 15 Oeste 0 -- -- 50
2020-07-07 04:00:00 22.8 10 Sur 15 Sur 0 -- -- 48
2020-07-07 03:00:00 22.3 8 Sudeste 14 Sur 0 -- -- 54
2020-07-07 02:00:00 23.5 8 Sudeste 16 Sudeste 0 -- -- 50
2020-07-07 01:00:00 23.8 9 Sudeste 16 Sur 0 -- -- 51
2020-07-07 00:00:00 24.1 9 Sudeste 15 Sur 0 -- -- 52